createdAt,value
2019-01-30T00:01:27.909Z,81.81
2019-01-30T00:03:57.081Z,81.83
2019-01-30T00:06:26.239Z,81.47
2019-01-30T00:08:55.486Z,81.50
2019-01-30T00:11:24.616Z,81.62
2019-01-30T00:13:53.904Z,81.74
2019-01-30T00:16:23.046Z,81.64
2019-01-30T00:18:52.354Z,81.63
2019-01-30T00:21:21.460Z,81.58
2019-01-30T00:23:50.594Z,81.75
2019-01-30T00:26:20.010Z,81.51
2019-01-30T00:28:49.133Z,81.70
2019-01-30T00:31:18.244Z,81.93
2019-01-30T00:33:47.398Z,81.81
2019-01-30T00:36:16.564Z,81.41
2019-01-30T00:38:45.670Z,81.52
2019-01-30T00:41:14.832Z,81.05
2019-01-30T00:43:43.947Z,81.94
2019-01-30T00:46:13.090Z,81.82
2019-01-30T00:48:42.167Z,81.96
2019-01-30T00:51:11.246Z,82.80
2019-01-30T00:53:40.444Z,82.87
2019-01-30T00:56:09.566Z,82.48
2019-01-30T00:58:38.679Z,82.38
2019-01-30T01:01:09.838Z,82.15
2019-01-30T01:03:39.051Z,82.39
2019-01-30T01:06:08.157Z,82.05
2019-01-30T01:08:37.339Z,82.30
2019-01-30T01:11:06.522Z,82.21
2019-01-30T01:13:35.679Z,82.41
2019-01-30T01:16:04.797Z,82.51
2019-01-30T01:18:33.822Z,82.47
2019-01-30T01:21:02.985Z,82.67
2019-01-30T01:23:32.151Z,82.70
2019-01-30T01:26:01.419Z,82.73
2019-01-30T01:28:30.507Z,82.74
2019-01-30T01:30:59.714Z,82.61
2019-01-30T01:33:28.788Z,82.52
2019-01-30T01:35:58.210Z,82.25
2019-01-30T01:38:27.412Z,82.21
2019-01-30T01:40:56.615Z,82.25
2019-01-30T01:43:25.732Z,82.20
2019-01-30T01:45:54.906Z,82.05
2019-01-30T01:48:24.102Z,82.14
2019-01-30T01:50:53.372Z,81.82
2019-01-30T01:53:24.044Z,82.04
2019-01-30T01:55:53.169Z,82.03
2019-01-30T01:58:22.306Z,82.40
2019-01-30T02:00:51.416Z,82.45
2019-01-30T02:03:20.553Z,82.28
2019-01-30T02:05:49.687Z,82.17
2019-01-30T02:08:18.938Z,81.98
2019-01-30T02:10:48.087Z,82.19
2019-01-30T02:13:17.501Z,82.16
2019-01-30T02:15:46.609Z,82.14
2019-01-30T02:18:15.863Z,82.12
2019-01-30T02:20:45.015Z,81.72
2019-01-30T02:23:14.148Z,81.72
2019-01-30T02:25:43.264Z,81.67
2019-01-30T02:28:12.375Z,81.89
2019-01-30T02:30:47.523Z,81.58
2019-01-30T02:33:12.815Z,82.08
2019-01-30T02:35:41.978Z,82.30
2019-01-30T02:38:11.076Z,82.28
2019-01-30T02:40:40.302Z,81.80
2019-01-30T02:43:09.440Z,82.10
2019-01-30T02:45:38.771Z,81.76
2019-01-30T02:48:07.894Z,82.05
2019-01-30T02:50:37.016Z,81.96
2019-01-30T02:53:06.142Z,81.94
2019-01-30T02:55:35.235Z,82.19
2019-01-30T02:58:04.340Z,82.77
2019-01-30T03:00:34.319Z,82.91
2019-01-30T03:03:03.726Z,82.81
2019-01-30T03:05:32.918Z,82.72
2019-01-30T03:08:02.119Z,82.55
2019-01-30T03:10:31.362Z,82.42
2019-01-30T03:13:00.538Z,82.50
2019-01-30T03:15:29.705Z,82.59
2019-01-30T03:17:58.845Z,82.55
2019-01-30T03:20:28.046Z,82.31
2019-01-30T03:22:57.184Z,82.47
2019-01-30T03:25:26.463Z,82.61
2019-01-30T03:27:55.643Z,82.45
2019-01-30T03:30:27.154Z,82.31
2019-01-30T03:32:56.258Z,82.13
2019-01-30T03:35:25.373Z,81.57
2019-01-30T03:37:54.456Z,81.85
2019-01-30T03:40:23.590Z,81.73
2019-01-30T03:42:52.738Z,81.73
2019-01-30T03:45:22.702Z,81.88
2019-01-30T03:47:51.816Z,81.27
2019-01-30T03:50:20.889Z,80.28
2019-01-30T03:52:49.967Z,80.00
2019-01-30T03:55:19.731Z,79.98
2019-01-30T03:57:48.819Z,80.17
2019-01-30T04:00:22.983Z,79.97
2019-01-30T04:02:52.281Z,80.21
2019-01-30T04:05:23.306Z,79.76
2019-01-30T04:07:52.503Z,80.06
2019-01-30T04:10:22.581Z,80.48
2019-01-30T04:12:51.655Z,80.34
2019-01-30T04:15:20.791Z,80.50
2019-01-30T04:17:49.885Z,80.50
2019-01-30T04:20:19.198Z,80.51
2019-01-30T04:22:48.387Z,80.30
2019-01-30T04:25:17.493Z,80.16
2019-01-30T04:27:46.599Z,80.53
2019-01-30T04:30:20.857Z,80.26
2019-01-30T04:32:49.949Z,80.59
2019-01-30T04:35:19.067Z,80.53
2019-01-30T04:37:48.216Z,80.67
2019-01-30T04:40:18.822Z,80.61
2019-01-30T04:42:47.947Z,80.93
2019-01-30T04:45:21.896Z,81.08
2019-01-30T04:47:51.309Z,81.10
2019-01-30T04:50:20.442Z,81.01
2019-01-30T04:52:49.590Z,81.20
2019-01-30T04:55:18.621Z,81.15
2019-01-30T04:57:47.764Z,80.85
2019-01-30T05:00:19.404Z,80.87
2019-01-30T05:02:48.480Z,81.17
2019-01-30T05:05:17.703Z,80.58
2019-01-30T05:07:46.797Z,80.55
2019-01-30T05:10:16.073Z,80.34
2019-01-30T05:12:45.229Z,80.61
2019-01-30T05:15:16.587Z,80.68
2019-01-30T05:17:45.686Z,80.32
2019-01-30T05:20:16.153Z,80.32
2019-01-30T05:22:45.324Z,79.75
2019-01-30T05:25:14.609Z,79.88
2019-01-30T05:27:43.723Z,79.65
2019-01-30T05:30:38.145Z,79.48
2019-01-30T05:33:07.252Z,79.60
2019-01-30T05:35:36.373Z,79.69
2019-01-30T05:38:05.560Z,79.59
2019-01-30T05:40:34.747Z,79.84
2019-01-30T05:43:03.808Z,80.08
2019-01-30T05:45:32.879Z,80.22
2019-01-30T05:48:02.063Z,80.21
2019-01-30T05:50:31.172Z,80.03
2019-01-30T05:53:00.294Z,79.82
2019-01-30T05:55:29.431Z,79.83
2019-01-30T05:57:58.598Z,80.06
2019-01-30T06:00:36.527Z,80.35
2019-01-30T06:03:05.704Z,80.25
2019-01-30T06:05:34.775Z,80.17
2019-01-30T06:08:03.861Z,80.21
2019-01-30T06:10:32.970Z,80.12
2019-01-30T06:13:02.033Z,79.63
2019-01-30T06:15:31.130Z,79.86
2019-01-30T06:18:00.268Z,79.66
2019-01-30T06:20:30.195Z,79.68
2019-01-30T06:23:01.666Z,79.27
2019-01-30T06:25:30.388Z,79.54
2019-01-30T06:27:59.465Z,79.82
2019-01-30T06:30:28.533Z,79.75
2019-01-30T06:32:57.615Z,79.75
2019-01-30T06:35:26.865Z,79.94
2019-01-30T06:37:56.033Z,79.14
2019-01-30T06:40:29.497Z,79.56
2019-01-30T06:42:58.567Z,79.71
2019-01-30T06:45:27.763Z,79.67
2019-01-30T06:47:57.140Z,79.51
2019-01-30T06:50:26.236Z,79.01
2019-01-30T06:52:55.307Z,78.65
2019-01-30T06:55:24.443Z,78.89
2019-01-30T06:57:53.670Z,78.96
2019-01-30T07:00:24.789Z,78.80
2019-01-30T07:02:53.892Z,78.18
2019-01-30T07:05:22.981Z,78.70
2019-01-30T07:07:52.080Z,78.74
2019-01-30T07:10:25.740Z,78.59
2019-01-30T07:12:54.844Z,78.15
2019-01-30T07:15:27.265Z,78.10
2019-01-30T07:17:56.446Z,77.93
2019-01-30T07:20:25.614Z,77.37
2019-01-30T07:22:56.308Z,77.07
2019-01-30T07:25:37.352Z,77.24
2019-01-30T07:28:06.851Z,77.00
2019-01-30T07:30:36.732Z,77.11
2019-01-30T07:33:06.808Z,76.82
2019-01-30T07:35:35.905Z,76.36
2019-01-30T07:38:05.078Z,76.55
2019-01-30T07:40:34.209Z,76.22
2019-01-30T07:43:03.301Z,76.11
2019-01-30T07:45:32.475Z,76.24
2019-01-30T07:48:01.641Z,75.84
2019-01-30T07:50:30.856Z,74.77
2019-01-30T07:52:59.881Z,75.19
2019-01-30T07:55:28.951Z,74.98
2019-01-30T07:57:58.016Z,75.35
2019-01-30T08:00:32.329Z,74.73
2019-01-30T08:03:01.425Z,75.03
2019-01-30T08:05:31.885Z,74.84
2019-01-30T08:08:01.072Z,73.49
2019-01-30T08:10:30.164Z,73.26
2019-01-30T08:12:59.302Z,73.04
2019-01-30T08:15:28.462Z,72.62
2019-01-30T08:17:57.638Z,73.10
2019-01-30T08:20:26.691Z,73.22
2019-01-30T08:22:55.880Z,72.69
2019-01-30T08:25:25.044Z,71.69
2019-01-30T08:27:54.360Z,71.52
2019-01-30T08:30:42.722Z,71.31
2019-01-30T08:33:11.931Z,71.55
2019-01-30T08:35:41.125Z,71.00
2019-01-30T08:38:12.479Z,69.82
2019-01-30T08:40:41.565Z,70.12
2019-01-30T08:43:10.664Z,69.36
2019-01-30T08:45:39.844Z,69.13
2019-01-30T08:48:09.019Z,70.24
2019-01-30T08:50:38.972Z,69.48
2019-01-30T08:53:08.173Z,69.51
2019-01-30T08:55:37.315Z,69.47
2019-01-30T08:58:06.413Z,69.84
2019-01-30T09:00:37.810Z,68.79
2019-01-30T09:03:14.483Z,69.27
2019-01-30T09:05:37.679Z,67.98
2019-01-30T09:08:08.772Z,68.71
2019-01-30T09:10:37.566Z,67.70
2019-01-30T09:13:08.945Z,67.53
2019-01-30T09:15:38.103Z,67.95
2019-01-30T09:18:07.201Z,67.51
2019-01-30T09:20:36.446Z,67.00
2019-01-30T09:23:05.524Z,66.83
2019-01-30T09:25:34.596Z,67.29
2019-01-30T09:28:03.751Z,67.46
2019-01-30T09:30:37.954Z,65.61
2019-01-30T09:33:09.123Z,67.33
2019-01-30T09:35:38.300Z,66.86
2019-01-30T09:38:07.476Z,66.68
2019-01-30T09:40:36.616Z,66.52
2019-01-30T09:43:05.850Z,67.24
2019-01-30T09:45:35.050Z,66.60
2019-01-30T09:48:04.640Z,66.91
2019-01-30T09:50:34.274Z,66.96
2019-01-30T09:53:03.610Z,66.05
2019-01-30T09:55:32.672Z,65.58
2019-01-30T09:58:01.735Z,65.54
2019-01-30T10:00:32.675Z,64.81
2019-01-30T10:03:01.803Z,65.92
2019-01-30T10:05:30.868Z,65.71
2019-01-30T10:07:59.929Z,65.00
2019-01-30T10:10:31.139Z,65.32
2019-01-30T10:13:00.281Z,65.79
2019-01-30T10:15:33.275Z,65.32
2019-01-30T10:18:04.379Z,65.80
2019-01-30T10:20:34.046Z,65.03
2019-01-30T10:23:03.118Z,64.70
2019-01-30T10:25:32.168Z,65.92
2019-01-30T10:28:01.660Z,65.70
2019-01-30T10:30:33.120Z,65.97
2019-01-30T10:33:02.177Z,65.51
2019-01-30T10:35:31.251Z,65.48
2019-01-30T10:38:00.329Z,65.16
2019-01-30T10:40:29.433Z,65.59
2019-01-30T10:42:58.535Z,66.24
2019-01-30T10:45:27.615Z,65.06
2019-01-30T10:47:56.686Z,65.20
2019-01-30T10:50:26.735Z,66.56
2019-01-30T10:52:55.809Z,65.61
2019-01-30T10:55:26.583Z,64.97
2019-01-30T10:57:57.292Z,65.23
2019-01-30T11:00:31.953Z,65.53
2019-01-30T11:03:00.189Z,65.31
2019-01-30T11:05:29.253Z,65.88
2019-01-30T11:07:58.340Z,65.65
2019-01-30T11:10:27.409Z,66.14
2019-01-30T11:12:56.484Z,65.46
2019-01-30T11:15:26.435Z,65.70
2019-01-30T11:17:55.520Z,65.34
2019-01-30T11:20:24.607Z,65.14
2019-01-30T11:22:54.022Z,65.48
2019-01-30T11:25:26.992Z,66.27
2019-01-30T11:27:56.066Z,65.04
2019-01-30T11:30:25.122Z,64.24
2019-01-30T11:32:55.586Z,65.91
2019-01-30T11:35:24.688Z,65.27
2019-01-30T11:37:53.839Z,64.57
2019-01-30T11:40:22.925Z,65.17
2019-01-30T11:42:51.993Z,65.06
2019-01-30T11:45:24.076Z,65.24
2019-01-30T11:47:53.186Z,65.45
2019-01-30T11:50:22.256Z,65.35
2019-01-30T11:52:51.374Z,65.00
2019-01-30T11:55:20.440Z,64.70
2019-01-30T11:57:49.922Z,64.65
2019-01-30T12:00:26.451Z,65.03
2019-01-30T12:02:55.533Z,65.13
2019-01-30T12:05:24.587Z,65.88
2019-01-30T12:07:53.709Z,66.32
2019-01-30T12:10:22.843Z,66.33
2019-01-30T12:12:51.936Z,65.95
2019-01-30T12:15:21.609Z,65.73
2019-01-30T12:17:50.715Z,66.03
2019-01-30T12:20:19.766Z,66.34
2019-01-30T12:22:48.863Z,66.74
2019-01-30T12:25:18.057Z,66.72
2019-01-30T12:27:51.012Z,66.21
2019-01-30T12:30:22.110Z,66.33
2019-01-30T12:32:51.143Z,66.77
2019-01-30T12:35:20.228Z,66.83
2019-01-30T12:37:49.338Z,67.42
2019-01-30T12:40:19.155Z,67.54
2019-01-30T12:42:48.226Z,68.24
2019-01-30T12:45:27.466Z,67.98
2019-01-30T12:47:56.544Z,68.56
2019-01-30T12:50:25.642Z,68.34
2019-01-30T12:52:54.714Z,68.61
2019-01-30T12:55:23.704Z,68.87
2019-01-30T12:57:52.739Z,68.51
2019-01-30T13:00:23.950Z,68.93
2019-01-30T13:02:52.973Z,69.23
2019-01-30T13:05:23.501Z,68.73
2019-01-30T13:07:52.565Z,69.29
2019-01-30T13:10:21.640Z,69.36
2019-01-30T13:12:50.721Z,68.95
2019-01-30T13:15:20.879Z,69.07
2019-01-30T13:17:50.011Z,69.47
2019-01-30T13:20:20.418Z,69.68
2019-01-30T13:22:49.566Z,69.76
2019-01-30T13:25:21.379Z,69.70
2019-01-30T13:27:50.538Z,70.13
2019-01-30T13:30:22.109Z,70.02
2019-01-30T13:32:51.328Z,70.21
2019-01-30T13:35:20.455Z,70.06
2019-01-30T13:37:49.582Z,69.55
2019-01-30T13:40:24.448Z,69.86
2019-01-30T13:42:58.369Z,69.62
2019-01-30T13:45:29.768Z,70.39
2019-01-30T13:48:09.003Z,70.59
2019-01-30T13:50:40.531Z,69.74
2019-01-30T13:53:09.802Z,70.19
2019-01-30T13:55:42.348Z,70.25
2019-01-30T13:58:11.435Z,70.24
2019-01-30T14:00:40.570Z,69.82
2019-01-30T14:03:30.651Z,69.01
2019-01-30T14:06:04.091Z,69.22
2019-01-30T14:08:41.009Z,69.58
2019-01-30T14:11:10.237Z,69.38
2019-01-30T14:13:39.279Z,69.77
2019-01-30T14:16:08.435Z,69.91
2019-01-30T14:18:37.598Z,69.96
2019-01-30T14:21:06.820Z,70.01
2019-01-30T14:23:36.029Z,68.90
2019-01-30T14:26:05.295Z,69.52
2019-01-30T14:28:34.558Z,69.86
2019-01-30T14:31:03.871Z,70.39
2019-01-30T14:33:32.979Z,70.08
2019-01-30T14:36:02.163Z,69.85
2019-01-30T14:38:31.376Z,70.31
2019-01-30T14:41:06.401Z,70.07
2019-01-30T14:43:31.526Z,69.42
2019-01-30T14:46:00.737Z,69.92
2019-01-30T14:48:29.947Z,70.32
2019-01-30T14:50:59.087Z,69.60
2019-01-30T14:53:30.607Z,69.09
2019-01-30T14:55:59.661Z,69.40
2019-01-30T14:58:28.920Z,69.23
2019-01-30T15:00:58.208Z,69.90
2019-01-30T15:03:27.388Z,69.46
2019-01-30T15:05:56.625Z,69.78
2019-01-30T15:08:25.901Z,70.10
2019-01-30T15:10:55.107Z,69.56
2019-01-30T15:13:24.223Z,70.15
2019-01-30T15:15:53.451Z,70.40
2019-01-30T15:18:22.585Z,70.19
2019-01-30T15:20:51.723Z,70.20
2019-01-30T15:23:20.803Z,70.05
2019-01-30T15:25:49.937Z,71.09
2019-01-30T15:28:19.045Z,71.24
2019-01-30T15:30:49.059Z,70.70
2019-01-30T15:33:18.264Z,70.54
2019-01-30T15:35:47.354Z,70.80
2019-01-30T15:38:20.641Z,70.51
2019-01-30T15:40:49.313Z,70.57
2019-01-30T15:43:18.413Z,70.10
2019-01-30T15:45:47.564Z,70.57
2019-01-30T15:48:16.911Z,71.09
2019-01-30T15:50:46.932Z,70.94
2019-01-30T15:53:18.682Z,70.46
2019-01-30T15:55:47.790Z,70.09
2019-01-30T15:58:16.934Z,69.85
2019-01-30T16:00:55.284Z,70.59
2019-01-30T16:03:24.388Z,69.96
2019-01-30T16:05:53.590Z,69.79
2019-01-30T16:08:22.769Z,70.25
2019-01-30T16:10:51.895Z,70.00
2019-01-30T16:13:20.948Z,69.92
2019-01-30T16:15:53.378Z,69.72
2019-01-30T16:18:22.514Z,69.59
2019-01-30T16:20:51.748Z,68.82
2019-01-30T16:23:20.850Z,69.65
2019-01-30T16:25:49.921Z,69.45
2019-01-30T16:28:19.083Z,69.90
2019-01-30T16:30:48.225Z,70.36
2019-01-30T16:33:17.439Z,69.96
2019-01-30T16:35:55.820Z,69.40
2019-01-30T16:38:18.281Z,69.58
2019-01-30T16:43:23.429Z,69.68
2019-01-30T16:45:52.653Z,70.01
2019-01-30T16:48:21.804Z,69.67
2019-01-30T16:50:51.113Z,69.76
2019-01-30T16:53:20.449Z,69.84
2019-01-30T16:55:49.778Z,69.42
2019-01-30T16:58:19.192Z,69.82
2019-01-30T17:01:00.267Z,70.25
2019-01-30T17:03:20.872Z,70.37
2019-01-30T17:05:50.102Z,70.28
2019-01-30T17:08:19.488Z,70.46
2019-01-30T17:10:48.815Z,70.83
2019-01-30T17:13:20.973Z,70.33
2019-01-30T17:15:51.418Z,70.74
2019-01-30T17:20:57.478Z,70.71
2019-01-30T17:23:28.350Z,70.67
2019-01-30T17:25:59.320Z,70.73
2019-01-30T17:28:28.760Z,70.55
2019-01-30T17:31:30.143Z,71.11
2019-01-30T17:33:59.684Z,70.83
2019-01-30T17:36:28.925Z,71.16
2019-01-30T17:38:59.327Z,71.19
2019-01-30T17:41:35.666Z,71.05
2019-01-30T17:44:24.003Z,70.84
2019-01-30T17:46:53.295Z,71.16
2019-01-30T17:49:22.587Z,71.63
2019-01-30T17:51:51.735Z,71.13
2019-01-30T17:54:21.037Z,71.28
2019-01-30T17:56:50.192Z,71.37
2019-01-30T17:59:19.767Z,71.96
2019-01-30T18:01:49.306Z,71.65
2019-01-30T18:04:18.590Z,71.68
2019-01-30T18:06:48.168Z,71.67
2019-01-30T18:09:17.438Z,72.09
2019-01-30T18:11:46.579Z,71.85
2019-01-30T18:14:15.907Z,71.48
2019-01-30T18:16:45.110Z,72.23
2019-01-30T18:19:14.284Z,71.95
2019-01-30T18:21:43.424Z,72.03
2019-01-30T18:24:12.715Z,72.00
2019-01-30T18:26:42.316Z,72.02
2019-01-30T18:29:11.490Z,71.96
2019-01-30T18:31:42.164Z,71.75
2019-01-30T18:34:11.532Z,71.80
2019-01-30T18:36:41.538Z,71.94
2019-01-30T18:39:11.143Z,72.09
2019-01-30T18:41:40.379Z,71.99
2019-01-30T18:44:09.849Z,72.01
2019-01-30T18:46:39.191Z,72.46
2019-01-30T18:49:08.583Z,72.17
2019-01-30T18:51:37.796Z,72.67
2019-01-30T18:54:07.269Z,72.89
2019-01-30T18:56:36.632Z,72.95
2019-01-30T18:59:06.151Z,73.18
2019-01-30T19:01:35.515Z,73.38
2019-01-30T19:04:04.669Z,73.65
2019-01-30T19:06:33.760Z,73.95
2019-01-30T19:09:02.886Z,74.15
2019-01-30T19:11:32.005Z,74.18
2019-01-30T19:14:01.189Z,74.81
2019-01-30T19:16:30.569Z,74.90
2019-01-30T19:18:59.708Z,74.71
2019-01-30T19:21:28.926Z,74.57
2019-01-30T19:23:58.052Z,74.92
2019-01-30T19:26:27.561Z,74.60
2019-01-30T19:28:56.700Z,74.60
2019-01-30T19:31:26.104Z,74.94
2019-01-30T19:33:55.780Z,74.86
2019-01-30T19:36:25.011Z,74.58
2019-01-30T19:38:56.388Z,75.20
2019-01-30T19:41:25.650Z,74.94
2019-01-30T19:43:54.887Z,74.99
2019-01-30T19:46:24.258Z,75.35
2019-01-30T19:48:55.420Z,75.66
2019-01-30T19:51:24.714Z,75.45
2019-01-30T19:53:54.160Z,75.12
2019-01-30T19:56:23.764Z,75.04
2019-01-30T19:58:53.566Z,75.42
2019-01-30T20:01:22.909Z,75.63
2019-01-30T20:03:52.380Z,76.04
2019-01-30T20:06:22.733Z,76.19
2019-01-30T20:08:54.249Z,76.28
2019-01-30T20:11:23.738Z,76.40
2019-01-30T20:13:53.664Z,76.55
2019-01-30T20:16:23.377Z,76.46
2019-01-30T20:18:52.692Z,76.61
2019-01-30T20:21:21.844Z,76.57
2019-01-30T20:23:50.976Z,76.85
2019-01-30T20:26:20.266Z,76.88
2019-01-30T20:28:49.569Z,77.07
2019-01-30T20:31:19.087Z,77.26
2019-01-30T20:33:48.623Z,77.26
2019-01-30T20:36:18.870Z,77.45
2019-01-30T20:38:48.374Z,77.60
2019-01-30T20:41:19.469Z,77.53
2019-01-30T20:43:48.785Z,77.52
2019-01-30T20:46:18.886Z,77.63
2019-01-30T20:48:51.613Z,78.06
2019-01-30T20:51:19.340Z,78.20
2019-01-30T20:53:48.806Z,78.53
2019-01-30T20:56:18.341Z,78.83
2019-01-30T20:58:47.839Z,78.92
2019-01-30T21:01:17.022Z,78.57
2019-01-30T21:03:46.442Z,78.21
2019-01-30T21:06:16.443Z,78.47
2019-01-30T21:08:45.813Z,78.52
2019-01-30T21:11:15.276Z,78.28
2019-01-30T21:13:44.561Z,78.00
2019-01-30T21:16:13.815Z,78.25
2019-01-30T21:18:43.235Z,78.00
2019-01-30T21:21:12.419Z,77.41
2019-01-30T21:23:41.625Z,77.43
2019-01-30T21:26:10.862Z,76.96
2019-01-30T21:28:40.037Z,76.72
2019-01-30T21:31:09.343Z,76.58
2019-01-30T21:33:38.716Z,76.22
2019-01-30T21:36:08.039Z,75.55
2019-01-30T21:38:37.192Z,75.91
2019-01-30T21:41:08.074Z,75.98
2019-01-30T21:43:37.240Z,75.75
2019-01-30T21:46:06.662Z,75.67
2019-01-30T21:48:37.142Z,75.69
2019-01-30T21:51:06.439Z,75.54
2019-01-30T21:53:35.622Z,75.76
2019-01-30T21:56:04.718Z,75.87
2019-01-30T21:58:33.810Z,75.70
2019-01-30T22:01:03.926Z,75.56
2019-01-30T22:03:32.993Z,75.97
2019-01-30T22:06:02.112Z,76.19
2019-01-30T22:08:31.386Z,76.21
2019-01-30T22:11:02.540Z,76.17
2019-01-30T22:13:31.669Z,76.40
2019-01-30T22:16:00.787Z,76.54
2019-01-30T22:18:29.983Z,76.69
2019-01-30T22:20:59.113Z,76.76
2019-01-30T22:23:28.287Z,76.72
2019-01-30T22:25:57.418Z,76.53
2019-01-30T22:28:26.549Z,76.94
2019-01-30T22:30:55.664Z,77.10
2019-01-30T22:33:24.831Z,77.26
2019-01-30T22:35:53.960Z,77.15
2019-01-30T22:38:23.312Z,77.38
2019-01-30T22:40:52.565Z,77.15
2019-01-30T22:43:21.668Z,77.21
2019-01-30T22:45:50.914Z,77.01
2019-01-30T22:48:20.054Z,77.02
2019-01-30T22:50:49.173Z,77.49
2019-01-30T22:53:18.264Z,77.52
2019-01-30T22:55:47.407Z,77.74
2019-01-30T22:58:16.542Z,77.79
2019-01-30T23:01:24.683Z,77.95
2019-01-30T23:04:16.490Z,77.77
2019-01-30T23:07:07.520Z,77.68
2019-01-30T23:10:18.123Z,77.63
2019-01-30T23:13:10.930Z,77.62
2019-01-30T23:16:08.807Z,77.64
2019-01-30T23:19:16.135Z,77.78
2019-01-30T23:21:57.237Z,77.80
2019-01-30T23:24:58.905Z,77.77
2019-01-30T23:27:53.487Z,77.71
2019-01-30T23:31:02.835Z,77.83
2019-01-30T23:34:16.062Z,77.64
2019-01-30T23:37:26.414Z,77.68
2019-01-30T23:40:46.085Z,77.82
2019-01-30T23:43:57.910Z,77.96
2019-01-30T23:46:58.974Z,77.96
2019-01-30T23:49:59.776Z,77.84
2019-01-30T23:53:07.550Z,77.93
2019-01-30T23:56:11.421Z,78.04
2019-01-30T23:59:11.140Z,78.70
